createdAt,value
2022-07-29T00:02:00.184Z,19.92
2022-07-29T00:04:30.001Z,19.93
2022-07-29T00:06:59.907Z,19.87
2022-07-29T00:09:29.649Z,19.82
2022-07-29T00:12:04.456Z,19.78
2022-07-29T00:14:34.249Z,19.84
2022-07-29T00:17:03.995Z,19.86
2022-07-29T00:19:35.338Z,19.95
2022-07-29T00:22:05.282Z,19.75
2022-07-29T00:24:35.054Z,19.79
2022-07-29T00:27:08.012Z,19.75
2022-07-29T00:29:37.771Z,19.79
2022-07-29T00:32:07.884Z,19.76
2022-07-29T00:34:50.096Z,19.76
2022-07-29T00:37:19.858Z,19.74
2022-07-29T00:39:49.548Z,19.79
2022-07-29T00:42:22.084Z,19.99
2022-07-29T00:44:51.815Z,19.96
2022-07-29T00:47:21.506Z,19.87
2022-07-29T00:49:51.417Z,19.86
2022-07-29T00:52:21.167Z,19.83
2022-07-29T00:54:50.901Z,19.80
2022-07-29T00:57:24.206Z,19.67
2022-07-29T00:59:53.963Z,19.63
2022-07-29T01:02:23.675Z,19.65
2022-07-29T01:04:53.861Z,19.66
2022-07-29T01:07:23.681Z,19.57
2022-07-29T01:09:54.671Z,19.61
2022-07-29T01:12:30.155Z,19.59
2022-07-29T01:15:00.345Z,19.50
2022-07-29T01:17:32.656Z,19.54
2022-07-29T01:20:14.676Z,19.35
2022-07-29T01:22:59.556Z,19.39
2022-07-29T01:25:53.199Z,19.32
2022-07-29T01:28:57.077Z,19.40
2022-07-29T01:31:36.593Z,19.43
2022-07-29T01:34:13.083Z,19.42
2022-07-29T01:36:47.820Z,19.33
2022-07-29T01:39:23.561Z,19.43
2022-07-29T01:41:58.519Z,19.22
2022-07-29T01:44:36.764Z,19.22
2022-07-29T01:47:14.482Z,19.29
2022-07-29T01:49:51.087Z,19.21
2022-07-29T01:52:27.462Z,19.29
2022-07-29T01:55:01.005Z,19.41
2022-07-29T01:57:35.025Z,19.49
2022-07-29T02:00:09.412Z,19.44
2022-07-29T02:02:41.757Z,19.52
2022-07-29T02:05:14.865Z,19.52
2022-07-29T02:07:45.906Z,19.35
2022-07-29T02:10:17.025Z,19.28
2022-07-29T02:12:50.901Z,19.23
2022-07-29T02:15:24.023Z,19.22
2022-07-29T02:17:59.032Z,19.13
2022-07-29T02:20:30.257Z,18.97
2022-07-29T02:23:02.549Z,19.03
2022-07-29T02:25:37.491Z,18.84
2022-07-29T02:28:10.075Z,18.89
2022-07-29T02:30:46.779Z,18.99
2022-07-29T02:33:19.673Z,18.95
2022-07-29T02:35:51.357Z,18.92
2022-07-29T02:38:34.931Z,18.85
2022-07-29T02:41:07.170Z,18.73
2022-07-29T02:43:38.983Z,18.79
2022-07-29T02:46:28.602Z,18.52
2022-07-29T02:49:03.299Z,18.47
2022-07-29T02:51:43.871Z,18.55
2022-07-29T02:54:21.585Z,18.50
2022-07-29T02:56:54.817Z,18.56
2022-07-29T02:59:28.798Z,18.55
2022-07-29T03:02:04.027Z,18.47
2022-07-29T03:04:36.377Z,18.55
2022-07-29T03:07:07.537Z,18.62
2022-07-29T03:09:38.124Z,18.66
2022-07-29T03:12:09.139Z,18.55
2022-07-29T03:14:40.994Z,18.56
2022-07-29T03:17:13.872Z,18.51
2022-07-29T03:19:43.861Z,18.48
2022-07-29T03:22:13.672Z,18.35
2022-07-29T03:24:43.393Z,18.44
2022-07-29T03:27:13.067Z,18.44
2022-07-29T03:29:49.619Z,18.31
2022-07-29T03:32:23.816Z,18.32
2022-07-29T03:34:53.832Z,18.19
2022-07-29T03:37:23.740Z,17.97
2022-07-29T03:39:54.905Z,17.97
2022-07-29T03:42:32.411Z,17.94
2022-07-29T03:45:09.213Z,17.98
2022-07-29T03:47:50.476Z,18.10
2022-07-29T03:50:23.154Z,18.21
2022-07-29T03:52:53.483Z,18.28
2022-07-29T03:55:23.391Z,18.21
2022-07-29T03:57:54.487Z,18.25
2022-07-29T04:00:24.466Z,18.22
2022-07-29T04:02:57.027Z,18.33
2022-07-29T04:05:26.768Z,18.26
2022-07-29T04:07:56.527Z,18.18
2022-07-29T04:10:31.738Z,18.24
2022-07-29T04:13:02.081Z,18.02
2022-07-29T04:15:32.088Z,18.13
2022-07-29T04:18:04.524Z,17.99
2022-07-29T04:20:34.355Z,18.10
2022-07-29T04:23:04.083Z,18.16
2022-07-29T04:25:33.925Z,18.09
2022-07-29T04:28:06.700Z,17.90
2022-07-29T04:30:37.410Z,17.89
2022-07-29T04:33:11.319Z,17.89
2022-07-29T04:35:47.196Z,17.90
2022-07-29T04:38:20.355Z,17.83
2022-07-29T04:40:50.100Z,17.92
2022-07-29T04:43:23.243Z,18.02
2022-07-29T04:45:53.281Z,18.04
2022-07-29T04:48:28.791Z,18.07
2022-07-29T04:50:58.849Z,18.09
2022-07-29T04:53:29.141Z,18.11
2022-07-29T04:55:59.086Z,18.22
2022-07-29T04:58:28.806Z,18.15
2022-07-29T05:00:58.594Z,18.36
2022-07-29T05:03:30.919Z,18.38
2022-07-29T05:06:00.647Z,18.40
2022-07-29T05:08:30.625Z,18.50
2022-07-29T05:11:11.234Z,18.62
2022-07-29T05:13:45.449Z,18.60
2022-07-29T05:16:16.927Z,18.73
2022-07-29T05:18:49.412Z,18.74
2022-07-29T05:21:19.178Z,18.83
2022-07-29T05:23:48.831Z,19.17
2022-07-29T05:26:18.613Z,19.45
2022-07-29T05:28:48.376Z,20.88
2022-07-29T05:31:18.703Z,20.97
2022-07-29T05:33:51.130Z,20.89
2022-07-29T05:36:20.892Z,21.22
2022-07-29T05:38:51.975Z,21.18
2022-07-29T05:41:22.243Z,22.15
2022-07-29T05:43:51.978Z,22.18
2022-07-29T05:46:21.798Z,22.70
2022-07-29T05:48:54.268Z,23.34
2022-07-29T05:51:24.049Z,24.00
2022-07-29T05:53:53.855Z,24.11
2022-07-29T05:56:24.501Z,24.75
2022-07-29T05:58:54.369Z,24.74
2022-07-29T06:01:24.359Z,24.55
2022-07-29T06:03:56.739Z,23.46
2022-07-29T06:06:26.511Z,22.33
2022-07-29T06:08:56.237Z,22.11
2022-07-29T06:11:25.951Z,21.96
2022-07-29T06:13:55.726Z,22.28
2022-07-29T06:16:28.910Z,21.77
2022-07-29T06:19:02.703Z,21.65
2022-07-29T06:21:32.480Z,21.47
2022-07-29T06:24:02.377Z,21.62
2022-07-29T06:26:35.238Z,21.67
2022-07-29T06:29:07.513Z,21.40
2022-07-29T06:31:37.639Z,21.67
2022-07-29T06:34:10.250Z,21.52
2022-07-29T06:36:41.221Z,21.79
2022-07-29T06:39:12.403Z,21.89
2022-07-29T06:41:42.127Z,22.04
2022-07-29T06:44:11.813Z,22.21
2022-07-29T06:46:41.589Z,22.58
2022-07-29T06:49:15.151Z,22.88
2022-07-29T06:51:44.923Z,22.91
2022-07-29T06:54:14.930Z,23.12
2022-07-29T06:56:44.957Z,23.22
2022-07-29T06:59:16.251Z,23.57
2022-07-29T07:01:47.184Z,23.18
2022-07-29T07:04:20.048Z,23.25
2022-07-29T07:06:50.086Z,23.34
2022-07-29T07:09:19.834Z,23.46
2022-07-29T07:11:50.252Z,23.74
2022-07-29T07:14:20.776Z,24.13
2022-07-29T07:16:51.021Z,24.38
2022-07-29T07:19:25.518Z,24.60
2022-07-29T07:21:56.208Z,24.89
2022-07-29T07:24:26.451Z,25.12
2022-07-29T07:26:56.208Z,24.88
2022-07-29T07:29:25.941Z,24.92
2022-07-29T07:32:00.508Z,25.12
2022-07-29T07:34:33.925Z,25.04
2022-07-29T07:37:03.660Z,24.71
2022-07-29T07:39:33.491Z,24.87
2022-07-29T07:42:03.416Z,25.09
2022-07-29T07:44:39.042Z,25.17
2022-07-29T07:47:16.764Z,24.77
2022-07-29T07:49:50.799Z,25.05
2022-07-29T07:52:22.331Z,25.45
2022-07-29T07:54:52.591Z,25.61
2022-07-29T07:57:22.401Z,25.44
2022-07-29T07:59:52.117Z,25.52
2022-07-29T08:02:22.039Z,25.75
2022-07-29T08:04:54.500Z,26.06
2022-07-29T08:07:24.254Z,26.06
2022-07-29T08:09:54.037Z,25.90
2022-07-29T08:12:23.782Z,25.53
2022-07-29T08:14:53.710Z,25.94
2022-07-29T08:17:23.554Z,25.57
2022-07-29T08:19:55.877Z,25.86
2022-07-29T08:22:26.285Z,26.08
2022-07-29T08:24:58.790Z,26.35
2022-07-29T08:27:45.504Z,26.38
2022-07-29T08:30:15.447Z,26.66
2022-07-29T08:32:54.469Z,26.87
2022-07-29T08:35:32.088Z,26.88
2022-07-29T08:38:04.688Z,26.97
2022-07-29T08:40:34.727Z,26.56
2022-07-29T08:43:09.799Z,26.66
2022-07-29T08:45:48.613Z,26.54
2022-07-29T08:48:20.239Z,26.77
2022-07-29T08:50:56.614Z,26.64
2022-07-29T08:53:29.873Z,26.81
2022-07-29T08:55:59.944Z,27.03
2022-07-29T08:58:30.811Z,26.72
2022-07-29T09:01:01.555Z,26.98
2022-07-29T09:03:35.689Z,27.16
2022-07-29T09:06:08.632Z,27.02
2022-07-29T09:08:38.508Z,27.19
2022-07-29T09:11:08.628Z,27.38
2022-07-29T09:13:38.467Z,27.33
2022-07-29T09:16:09.717Z,27.38
2022-07-29T09:18:41.535Z,27.53
2022-07-29T09:21:28.288Z,27.71
2022-07-29T09:24:05.749Z,27.87
2022-07-29T09:26:37.231Z,28.00
2022-07-29T09:29:13.713Z,28.02
2022-07-29T09:31:45.541Z,28.12
2022-07-29T09:34:17.106Z,28.18
2022-07-29T09:36:51.444Z,28.31
2022-07-29T09:39:31.429Z,28.31
2022-07-29T09:42:03.323Z,28.37
2022-07-29T09:44:46.350Z,28.37
2022-07-29T09:47:16.654Z,28.31
2022-07-29T09:49:59.275Z,28.62
2022-07-29T09:52:33.191Z,28.58
2022-07-29T09:55:10.077Z,28.90
2022-07-29T09:57:44.294Z,28.97
2022-07-29T10:00:16.456Z,28.82
2022-07-29T10:02:47.802Z,29.09
2022-07-29T10:05:23.165Z,29.35
2022-07-29T10:07:57.495Z,29.11
2022-07-29T10:10:29.809Z,29.03
2022-07-29T10:13:07.199Z,29.18
2022-07-29T10:15:44.300Z,29.02
2022-07-29T10:18:15.699Z,28.90
2022-07-29T10:20:45.671Z,29.05
2022-07-29T10:23:18.889Z,29.17
2022-07-29T10:25:49.845Z,29.02
2022-07-29T10:28:19.749Z,29.07
2022-07-29T10:30:50.719Z,28.88
2022-07-29T10:33:34.801Z,28.75
2022-07-29T10:36:14.362Z,28.58
2022-07-29T10:38:59.631Z,28.48
2022-07-29T10:41:47.824Z,28.16
2022-07-29T10:44:23.013Z,27.96
2022-07-29T10:46:55.245Z,27.74
2022-07-29T10:49:27.447Z,27.63
2022-07-29T10:52:06.544Z,27.40
2022-07-29T10:54:51.354Z,27.17
2022-07-29T10:57:53.490Z,26.97
2022-07-29T11:00:32.245Z,26.73
2022-07-29T11:03:04.701Z,26.50
2022-07-29T11:05:59.901Z,26.25
2022-07-29T11:08:31.885Z,26.24
2022-07-29T11:11:31.772Z,26.02
2022-07-29T11:14:04.758Z,25.78
2022-07-29T11:17:09.088Z,25.65
2022-07-29T11:19:45.713Z,25.41
2022-07-29T11:22:37.056Z,25.16
2022-07-29T11:25:19.148Z,25.05
2022-07-29T11:28:22.967Z,24.81
2022-07-29T11:30:58.191Z,24.77
2022-07-29T11:33:37.513Z,24.78
2022-07-29T11:36:28.120Z,24.67
2022-07-29T11:39:36.439Z,24.51
2022-07-29T11:42:37.421Z,24.38
2022-07-29T11:45:44.845Z,24.04
2022-07-29T11:48:29.785Z,23.89
2022-07-29T11:50:58.788Z,23.71
2022-07-29T11:53:32.713Z,23.76
2022-07-29T11:56:03.957Z,23.36
2022-07-29T11:58:34.102Z,23.37
2022-07-29T12:01:05.629Z,22.91
2022-07-29T12:03:38.254Z,22.86
2022-07-29T12:06:18.179Z,22.52
2022-07-29T12:08:50.689Z,22.68
2022-07-29T12:11:22.671Z,22.67
2022-07-29T12:13:53.692Z,22.65
2022-07-29T12:16:25.304Z,22.30
2022-07-29T12:19:05.291Z,22.29
2022-07-29T12:21:59.490Z,22.42
2022-07-29T12:24:30.015Z,22.02
2022-07-29T12:27:01.010Z,22.12
2022-07-29T12:29:34.745Z,22.29
2022-07-29T12:32:14.286Z,22.18
2022-07-29T12:34:47.643Z,22.18
2022-07-29T12:37:17.570Z,22.17
2022-07-29T12:39:47.534Z,22.27
2022-07-29T12:42:19.326Z,22.25
2022-07-29T12:44:51.116Z,22.30
2022-07-29T12:47:22.559Z,22.38
2022-07-29T12:50:12.557Z,22.51
2022-07-29T12:52:42.331Z,22.53
2022-07-29T12:55:12.103Z,22.50
2022-07-29T12:57:51.784Z,22.65
2022-07-29T13:00:26.502Z,22.51
2022-07-29T13:03:00.120Z,22.31
2022-07-29T13:05:49.563Z,22.36
2022-07-29T13:08:22.326Z,22.25
2022-07-29T13:10:52.587Z,22.15
2022-07-29T13:13:22.301Z,22.01
2022-07-29T13:16:09.904Z,22.07
2022-07-29T13:18:39.964Z,22.10
2022-07-29T13:21:21.393Z,22.08
2022-07-29T13:23:51.082Z,21.91
2022-07-29T13:26:20.847Z,21.98
2022-07-29T13:28:50.845Z,21.96
2022-07-29T13:31:20.567Z,22.05
2022-07-29T13:33:50.258Z,22.14
2022-07-29T13:36:22.581Z,22.08
2022-07-29T13:38:52.301Z,22.09
2022-07-29T13:41:22.083Z,21.81
2022-07-29T13:43:51.753Z,21.85
2022-07-29T13:46:21.443Z,21.73
2022-07-29T13:48:51.801Z,21.84
2022-07-29T13:51:24.177Z,21.73
2022-07-29T13:53:53.832Z,21.89
2022-07-29T13:56:23.621Z,21.76
2022-07-29T13:58:53.373Z,21.48
2022-07-29T14:01:23.188Z,21.52
2022-07-29T14:03:53.079Z,21.45
2022-07-29T14:06:25.386Z,21.42
2022-07-29T14:08:55.237Z,21.62
2022-07-29T14:11:25.028Z,21.74
2022-07-29T14:13:54.803Z,21.76
2022-07-29T14:16:24.705Z,21.84
2022-07-29T14:18:54.549Z,21.60
2022-07-29T14:21:26.985Z,21.73
2022-07-29T14:23:56.732Z,21.62
2022-07-29T14:26:26.633Z,21.77
2022-07-29T14:28:57.224Z,21.76
2022-07-29T14:31:27.153Z,21.74
2022-07-29T14:33:59.942Z,21.75
2022-07-29T14:36:35.087Z,21.67
2022-07-29T14:39:05.129Z,21.92
2022-07-29T14:41:34.839Z,21.99
2022-07-29T14:44:04.511Z,22.09
2022-07-29T14:46:34.733Z,22.00
2022-07-29T14:49:04.658Z,22.04
2022-07-29T14:51:39.320Z,22.08
2022-07-29T14:54:10.177Z,22.09
2022-07-29T14:56:46.501Z,22.11
2022-07-29T14:59:16.752Z,22.27
2022-07-29T15:01:46.779Z,22.17
2022-07-29T15:04:16.435Z,22.19
2022-07-29T15:06:48.799Z,22.21
2022-07-29T15:09:19.066Z,22.13
2022-07-29T15:11:48.791Z,22.19
2022-07-29T15:14:18.467Z,22.27
2022-07-29T15:16:48.428Z,22.37
2022-07-29T15:19:18.328Z,22.39
2022-07-29T15:21:50.617Z,22.40
2022-07-29T15:24:21.112Z,22.35
2022-07-29T15:26:51.459Z,22.30
2022-07-29T15:29:21.216Z,22.14
2022-07-29T15:31:50.974Z,22.18
2022-07-29T15:34:21.766Z,22.11
2022-07-29T15:36:54.426Z,22.22
2022-07-29T15:39:25.332Z,22.23
2022-07-29T15:41:55.166Z,22.20
2022-07-29T15:44:25.084Z,22.36
2022-07-29T15:47:04.183Z,22.31
2022-07-29T15:49:47.525Z,22.39
2022-07-29T15:52:25.344Z,22.41
2022-07-29T15:54:57.094Z,22.41
2022-07-29T15:57:27.634Z,22.21
2022-07-29T15:59:57.386Z,22.23
2022-07-29T16:02:27.151Z,22.42
2022-07-29T16:04:56.908Z,22.46
2022-07-29T16:07:31.772Z,22.49
2022-07-29T16:10:02.571Z,22.43
2022-07-29T16:12:32.450Z,22.45
2022-07-29T16:15:06.184Z,22.54
2022-07-29T16:17:39.158Z,22.53
2022-07-29T16:20:10.558Z,22.37
2022-07-29T16:22:46.152Z,22.45
2022-07-29T16:25:15.865Z,22.52
2022-07-29T16:27:45.680Z,22.55
2022-07-29T16:30:15.811Z,22.55
2022-07-29T16:32:45.492Z,22.58
2022-07-29T16:35:15.270Z,22.44
2022-07-29T16:37:47.677Z,22.41
2022-07-29T16:40:17.568Z,22.57
2022-07-29T16:42:47.884Z,22.56
2022-07-29T16:45:21.414Z,22.60
2022-07-29T16:47:51.377Z,22.51
2022-07-29T16:50:22.441Z,22.62
2022-07-29T16:52:55.011Z,22.68
2022-07-29T16:55:25.166Z,22.59
2022-07-29T16:57:55.525Z,22.55
2022-07-29T17:00:25.482Z,22.50
2022-07-29T17:02:55.262Z,22.52
2022-07-29T17:05:25.155Z,22.50
2022-07-29T17:07:58.601Z,22.60
2022-07-29T17:10:30.071Z,22.64
2022-07-29T17:12:59.859Z,22.50
2022-07-29T17:15:29.738Z,22.55
2022-07-29T17:18:00.892Z,22.62
2022-07-29T17:20:33.236Z,22.55
2022-07-29T17:23:05.679Z,22.65
2022-07-29T17:25:35.503Z,22.46
2022-07-29T17:28:05.215Z,22.40
2022-07-29T17:30:34.961Z,22.52
2022-07-29T17:33:04.765Z,22.50
2022-07-29T17:35:46.941Z,22.48
2022-07-29T17:38:19.330Z,22.41
2022-07-29T17:40:49.075Z,22.48
2022-07-29T17:43:18.830Z,22.42
2022-07-29T17:45:50.603Z,22.46
2022-07-29T17:48:20.873Z,22.50
2022-07-29T17:50:51.676Z,22.51
2022-07-29T17:53:24.031Z,22.49
2022-07-29T17:55:53.875Z,22.57
2022-07-29T17:58:23.612Z,22.46
2022-07-29T18:00:53.669Z,22.44
2022-07-29T18:03:23.472Z,22.40
2022-07-29T18:05:53.683Z,22.40
2022-07-29T18:08:26.116Z,22.37
2022-07-29T18:10:56.268Z,22.37
2022-07-29T18:13:26.563Z,22.45
2022-07-29T18:16:00.050Z,22.40
2022-07-29T18:18:30.407Z,22.40
2022-07-29T18:21:00.353Z,22.41
2022-07-29T18:23:32.827Z,22.40
2022-07-29T18:26:02.571Z,22.39
2022-07-29T18:28:32.895Z,22.34
2022-07-29T18:31:02.816Z,22.30
2022-07-29T18:33:32.839Z,22.24
2022-07-29T18:36:07.642Z,22.23
2022-07-29T18:38:43.939Z,22.11
2022-07-29T18:41:13.671Z,22.10
2022-07-29T18:43:43.347Z,22.03
2022-07-29T18:46:13.163Z,22.02
2022-07-29T18:48:43.945Z,22.01
2022-07-29T18:51:13.692Z,21.99
2022-07-29T18:53:46.026Z,21.97
2022-07-29T18:56:15.713Z,21.92
2022-07-29T18:58:45.411Z,21.92
2022-07-29T19:01:16.803Z,21.93
2022-07-29T19:03:46.853Z,21.90
2022-07-29T19:06:16.736Z,21.89
2022-07-29T19:08:49.071Z,21.94
2022-07-29T19:11:18.755Z,21.93
2022-07-29T19:13:48.524Z,21.90
2022-07-29T19:16:18.792Z,21.80
2022-07-29T19:18:49.600Z,21.74
2022-07-29T19:21:19.393Z,21.67
2022-07-29T19:24:05.771Z,21.65
2022-07-29T19:26:42.214Z,21.61
2022-07-29T19:29:11.898Z,21.58
2022-07-29T19:31:41.714Z,21.63
2022-07-29T19:34:11.619Z,21.61
2022-07-29T19:36:41.971Z,21.58
2022-07-29T19:39:15.469Z,21.56
2022-07-29T19:41:45.247Z,21.57
2022-07-29T19:44:15.662Z,21.54
2022-07-29T19:46:45.820Z,21.42
2022-07-29T19:49:15.776Z,21.38
2022-07-29T19:51:45.520Z,21.36
2022-07-29T19:54:18.425Z,21.42
2022-07-29T19:56:48.123Z,21.34
2022-07-29T19:59:17.871Z,21.25
2022-07-29T20:01:53.861Z,21.17
2022-07-29T20:04:23.639Z,21.11
2022-07-29T20:06:56.263Z,21.00
2022-07-29T20:09:28.856Z,20.84
2022-07-29T20:11:58.604Z,20.86
2022-07-29T20:14:28.398Z,20.93
2022-07-29T20:16:58.328Z,20.98
2022-07-29T20:19:28.611Z,20.92
2022-07-29T20:21:58.320Z,20.84
2022-07-29T20:24:30.608Z,20.75
2022-07-29T20:27:00.673Z,20.71
2022-07-29T20:29:30.653Z,20.68
2022-07-29T20:32:00.442Z,20.76
2022-07-29T20:34:30.182Z,20.76
2022-07-29T20:37:01.860Z,20.62
2022-07-29T20:39:34.407Z,20.65
2022-07-29T20:42:04.152Z,20.60
2022-07-29T20:44:34.066Z,20.52
2022-07-29T20:47:03.811Z,20.39
2022-07-29T20:49:33.786Z,20.34
2022-07-29T20:52:03.482Z,20.33
2022-07-29T20:54:35.873Z,20.29
2022-07-29T20:57:05.599Z,20.21
2022-07-29T20:59:35.579Z,20.18
2022-07-29T21:02:05.427Z,20.27
2022-07-29T21:04:37.273Z,20.30
2022-07-29T21:07:07.234Z,20.26
2022-07-29T21:09:39.564Z,20.25
2022-07-29T21:12:11.205Z,20.33
2022-07-29T21:14:51.801Z,20.32
2022-07-29T21:17:22.457Z,20.16
2022-07-29T21:19:52.845Z,20.12
2022-07-29T21:22:22.804Z,20.14
2022-07-29T21:24:55.190Z,20.14
2022-07-29T21:27:38.286Z,20.08
2022-07-29T21:30:10.282Z,20.03
2022-07-29T21:32:40.331Z,20.01
2022-07-29T21:35:22.401Z,19.97
2022-07-29T21:38:01.786Z,19.90
2022-07-29T21:40:34.158Z,19.80
2022-07-29T21:43:03.893Z,19.78
2022-07-29T21:45:33.637Z,19.73
2022-07-29T21:48:03.501Z,19.71
2022-07-29T21:50:33.266Z,19.61
2022-07-29T21:53:02.996Z,19.66
2022-07-29T21:55:36.773Z,19.54
2022-07-29T21:58:06.748Z,19.57
2022-07-29T22:00:36.783Z,19.52
2022-07-29T22:03:09.042Z,19.39
2022-07-29T22:05:39.059Z,19.39
2022-07-29T22:08:09.183Z,19.54
2022-07-29T22:10:41.462Z,19.46
2022-07-29T22:13:11.393Z,19.62
2022-07-29T22:15:45.357Z,19.46
2022-07-29T22:18:19.518Z,19.37
2022-07-29T22:20:50.489Z,19.35
2022-07-29T22:23:20.254Z,19.22
2022-07-29T22:25:52.669Z,19.28
2022-07-29T22:28:22.395Z,19.26
2022-07-29T22:30:52.180Z,19.18
2022-07-29T22:33:21.876Z,19.26
2022-07-29T22:35:52.107Z,19.18
2022-07-29T22:38:21.776Z,19.23
2022-07-29T22:40:54.321Z,19.16
2022-07-29T22:43:30.358Z,18.98
2022-07-29T22:46:00.146Z,18.99
2022-07-29T22:48:30.446Z,19.08
2022-07-29T22:51:00.287Z,19.04
2022-07-29T22:53:30.071Z,19.01
2022-07-29T22:56:02.646Z,19.04
2022-07-29T22:58:32.397Z,18.96
2022-07-29T23:01:02.114Z,18.93
2022-07-29T23:03:32.043Z,19.12
2022-07-29T23:06:01.759Z,19.11
2022-07-29T23:08:31.545Z,19.04
2022-07-29T23:11:03.947Z,19.02
2022-07-29T23:13:34.214Z,18.97
2022-07-29T23:16:03.970Z,19.06
2022-07-29T23:18:33.723Z,19.11
2022-07-29T23:21:03.445Z,19.10
2022-07-29T23:23:33.271Z,19.05
2022-07-29T23:26:05.581Z,18.99
2022-07-29T23:28:35.326Z,19.01
2022-07-29T23:31:05.096Z,18.91
2022-07-29T23:33:34.869Z,18.75
2022-07-29T23:36:04.653Z,18.70
2022-07-29T23:38:34.357Z,18.65
2022-07-29T23:41:09.824Z,18.66
2022-07-29T23:43:40.048Z,18.59
2022-07-29T23:46:09.832Z,18.59
2022-07-29T23:48:40.129Z,18.50
2022-07-29T23:51:10.251Z,18.44
2022-07-29T23:53:53.020Z,18.55
2022-07-29T23:56:26.662Z,18.53
2022-07-29T23:58:56.406Z,18.55
